Addy, Washington
Current Conditions -  °F | °C
As of 12:53 AM on Friday 24 Oct 2014 (Local Time) from KDEW Reporting Station
Clear Clear  
Wind Chill: 41°   Ceiling: Unl
Heat Index: 45°   Visibility: 10mi
Dew Point: 41°   Wind: 8mph
Humidity: 86%   Direction: 160°SSE
Pressure: 30"   Gusts: NA
Location:  48.36°N, 117.84°W
Report Text: KDEW 240753Z AUTO 16007KT 10SM CLR 07/05 A3000 RMK AO2 SLP161 T00720050 401280072
Loading
Personal Weather Stations






























Interactive Weather Map New forecast layout! Learn more

10-Day Weather Forecast

Advertisements
Track Severe Weather on mobile